createdAt,value
2022-11-12T00:01:04.020Z,4.18
2022-11-12T00:04:09.324Z,4.35
2022-11-12T00:07:13.674Z,4.28
2022-11-12T00:10:18.077Z,4.95
2022-11-12T00:13:22.390Z,5.97
2022-11-12T00:16:26.739Z,5.10
2022-11-12T00:19:31.372Z,18.83
2022-11-12T00:22:36.069Z,14.52
2022-11-12T00:25:40.209Z,7.80
2022-11-12T00:28:44.629Z,7.65
2022-11-12T00:31:49.079Z,6.57
2022-11-12T00:34:53.831Z,6.18
2022-11-12T00:37:58.450Z,5.63
2022-11-12T00:41:02.933Z,5.47
2022-11-12T00:44:07.032Z,6.32
2022-11-12T00:47:11.462Z,5.75
2022-11-12T00:50:16.780Z,5.13
2022-11-12T00:53:21.137Z,6.47
2022-11-12T00:56:25.516Z,6.15
2022-11-12T00:59:30.091Z,5.43
2022-11-12T01:02:40.691Z,5.10
2022-11-12T01:05:44.902Z,5.25
2022-11-12T01:08:49.570Z,5.38
2022-11-12T01:11:54.039Z,5.07
2022-11-12T01:14:58.489Z,5.38
2022-11-12T01:18:03.209Z,5.40
2022-11-12T01:21:08.435Z,6.45
2022-11-12T01:24:12.755Z,6.40
2022-11-12T01:27:17.129Z,6.95
2022-11-12T01:30:21.388Z,6.80
2022-11-12T01:33:26.014Z,6.63
2022-11-12T01:36:34.979Z,6.75
2022-11-12T01:39:39.507Z,6.97
2022-11-12T01:42:43.743Z,7.13
2022-11-12T01:45:50.910Z,6.45
2022-11-12T01:49:08.819Z,7.38
2022-11-12T01:52:20.967Z,7.00
2022-11-12T01:55:34.415Z,7.15
2022-11-12T01:58:40.573Z,6.47
2022-11-12T02:01:45.064Z,7.00
2022-11-12T02:04:50.390Z,6.40
2022-11-12T02:07:56.565Z,7.00
2022-11-12T02:11:11.632Z,6.30
2022-11-12T02:14:16.034Z,5.05
2022-11-12T02:17:20.924Z,5.07
2022-11-12T02:20:25.521Z,5.10
2022-11-12T02:23:29.885Z,4.88
2022-11-12T02:26:36.897Z,5.03
2022-11-12T02:29:46.333Z,4.88
2022-11-12T02:32:50.500Z,4.75
2022-11-12T02:35:55.067Z,4.93
2022-11-12T02:38:59.517Z,5.15
2022-11-12T02:42:04.056Z,4.47
2022-11-12T02:45:09.063Z,3.95
2022-11-12T02:48:18.949Z,4.15
2022-11-12T02:51:23.336Z,3.90
2022-11-12T02:54:27.781Z,3.72
2022-11-12T02:57:32.313Z,4.22
2022-11-12T03:00:36.609Z,4.28
2022-11-12T03:03:40.881Z,4.63
2022-11-12T03:06:45.160Z,4.32
2022-11-12T03:09:49.423Z,4.53
2022-11-12T03:12:56.514Z,4.38
2022-11-12T03:16:01.462Z,4.13
2022-11-12T03:19:06.056Z,3.60
2022-11-12T03:22:10.169Z,3.45
2022-11-12T03:25:14.546Z,3.30
2022-11-12T03:28:19.237Z,3.08
2022-11-12T03:31:23.753Z,3.92
2022-11-12T03:34:28.318Z,3.45
2022-11-12T03:37:32.708Z,3.20
2022-11-12T03:40:37.087Z,3.20
2022-11-12T03:43:41.641Z,2.65
2022-11-12T03:46:45.970Z,2.63
2022-11-12T03:49:50.597Z,2.95
2022-11-12T03:52:57.432Z,2.72
2022-11-12T03:56:01.777Z,2.92
2022-11-12T03:59:06.160Z,2.60
2022-11-12T04:02:14.379Z,2.63
2022-11-12T04:05:37.678Z,2.70
2022-11-12T04:08:42.074Z,2.63
2022-11-12T04:11:46.501Z,2.25
2022-11-12T04:14:50.881Z,2.45
2022-11-12T04:18:13.802Z,2.60
2022-11-12T04:21:37.365Z,2.45
2022-11-12T04:25:01.685Z,2.60
2022-11-12T04:28:06.230Z,2.50
2022-11-12T04:31:10.560Z,3.00
2022-11-12T04:34:30.371Z,3.33
2022-11-12T04:37:45.741Z,2.97
2022-11-12T04:41:08.455Z,2.83
2022-11-12T04:44:31.625Z,3.65
2022-11-12T04:47:38.324Z,2.75
2022-11-12T04:50:44.944Z,2.92
2022-11-12T04:53:48.999Z,3.20
2022-11-12T04:56:53.293Z,2.97
2022-11-12T04:59:57.778Z,3.35
2022-11-12T05:03:02.491Z,3.25
2022-11-12T05:06:30.267Z,3.17
2022-11-12T05:09:35.601Z,3.00
2022-11-12T05:12:40.147Z,3.28
2022-11-12T05:15:44.686Z,3.75
2022-11-12T05:18:49.155Z,3.70
2022-11-12T05:22:05.506Z,3.97
2022-11-12T05:25:10.180Z,3.55
2022-11-12T05:28:14.486Z,4.00
2022-11-12T05:31:18.950Z,3.50
2022-11-12T05:34:23.862Z,3.70
2022-11-12T05:37:28.875Z,4.13
2022-11-12T05:40:33.522Z,3.40
2022-11-12T05:43:37.946Z,2.95
2022-11-12T05:46:42.293Z,2.63
2022-11-12T05:49:46.667Z,2.92
2022-11-12T05:52:51.198Z,2.72
2022-11-12T05:56:02.157Z,3.25
2022-11-12T05:59:09.227Z,3.40
2022-11-12T06:02:14.025Z,3.28
2022-11-12T06:05:18.380Z,3.00
2022-11-12T06:08:22.668Z,3.75
2022-11-12T06:11:27.156Z,3.17
2022-11-12T06:14:31.463Z,3.15
2022-11-12T06:17:35.883Z,2.88
2022-11-12T06:20:40.841Z,2.70
2022-11-12T06:23:51.699Z,2.83
2022-11-12T06:26:56.228Z,3.20
2022-11-12T06:30:00.877Z,3.30
2022-11-12T06:33:05.333Z,2.85
2022-11-12T06:36:12.384Z,3.00
2022-11-12T06:39:16.640Z,2.70
2022-11-12T06:42:21.019Z,3.25
2022-11-12T06:45:25.814Z,2.80
2022-11-12T06:48:31.134Z,3.42
2022-11-12T06:51:35.770Z,2.90
2022-11-12T06:54:39.817Z,3.45
2022-11-12T06:57:44.109Z,3.33
2022-11-12T07:00:48.552Z,3.90
2022-11-12T07:03:54.113Z,3.47
2022-11-12T07:06:58.651Z,3.45
2022-11-12T07:10:03.644Z,4.25
2022-11-12T07:13:08.123Z,4.20
2022-11-12T07:16:14.214Z,5.00
2022-11-12T07:19:18.457Z,4.22
2022-11-12T07:22:22.732Z,4.10
2022-11-12T07:25:27.186Z,4.68
2022-11-12T07:28:32.095Z,5.25
2022-11-12T07:31:36.360Z,4.82
2022-11-12T07:34:40.787Z,5.32
2022-11-12T07:37:45.480Z,5.55
2022-11-12T07:40:49.905Z,5.20
2022-11-12T07:43:54.393Z,5.80
2022-11-12T07:46:58.726Z,6.30
2022-11-12T07:50:03.014Z,6.82
2022-11-12T07:53:07.708Z,6.63
2022-11-12T07:56:14.529Z,6.55
2022-11-12T07:59:18.818Z,6.70
2022-11-12T08:02:23.061Z,6.15
2022-11-12T08:05:27.791Z,5.68
2022-11-12T08:08:31.896Z,6.28
2022-11-12T08:11:36.537Z,5.97
2022-11-12T08:14:40.945Z,7.13
2022-11-12T08:17:45.492Z,6.38
2022-11-12T08:20:49.627Z,6.30
2022-11-12T08:23:54.024Z,6.55
2022-11-12T08:26:58.500Z,6.25
2022-11-12T08:30:04.086Z,6.55
2022-11-12T08:33:08.295Z,6.43
2022-11-12T08:36:14.449Z,6.70
2022-11-12T08:39:18.557Z,6.75
2022-11-12T08:42:23.255Z,6.82
2022-11-12T08:45:28.789Z,7.30
2022-11-12T08:48:34.487Z,6.97
2022-11-12T08:51:38.757Z,8.63
2022-11-12T08:54:42.982Z,9.23
2022-11-12T08:57:47.237Z,8.95
2022-11-12T09:00:52.447Z,9.07
2022-11-12T09:03:56.750Z,9.80
2022-11-12T09:07:01.276Z,9.07
2022-11-12T09:10:06.161Z,10.23
2022-11-12T09:13:10.740Z,10.65
2022-11-12T09:16:15.197Z,10.75
2022-11-12T09:19:19.547Z,11.23
2022-11-12T09:22:24.502Z,11.30
2022-11-12T09:25:29.339Z,10.75
2022-11-12T09:28:33.627Z,11.88
2022-11-12T09:31:38.168Z,10.63
2022-11-12T09:34:42.472Z,10.93
2022-11-12T09:37:47.064Z,11.98
2022-11-12T09:40:51.338Z,11.13
2022-11-12T09:44:04.142Z,11.30
2022-11-12T09:47:57.578Z,12.00
2022-11-12T09:51:10.722Z,11.93
2022-11-12T09:54:27.262Z,11.88
2022-11-12T09:57:33.488Z,11.75
2022-11-12T10:00:44.989Z,11.32
2022-11-12T10:04:21.798Z,11.25
2022-11-12T10:07:43.777Z,12.25
2022-11-12T10:10:59.592Z,11.68
2022-11-12T10:14:22.386Z,12.02
2022-11-12T10:17:39.613Z,12.88
2022-11-12T10:20:52.513Z,12.75
2022-11-12T10:23:57.820Z,12.27
2022-11-12T10:27:29.584Z,12.95
2022-11-12T10:30:35.781Z,12.45
2022-11-12T10:33:40.372Z,13.27
2022-11-12T10:36:47.890Z,12.38
2022-11-12T10:39:51.865Z,13.05
2022-11-12T10:43:20.978Z,13.52
2022-11-12T10:46:28.617Z,13.45
2022-11-12T10:49:32.858Z,14.43
2022-11-12T10:52:37.515Z,15.75
2022-11-12T10:55:59.483Z,15.77
2022-11-12T10:59:11.372Z,15.13
2022-11-12T11:02:18.924Z,14.30
2022-11-12T11:05:37.595Z,14.60
2022-11-12T11:08:48.167Z,15.55
2022-11-12T11:11:56.514Z,16.85
2022-11-12T11:15:15.979Z,15.55
2022-11-12T11:18:20.527Z,16.27
2022-11-12T11:21:44.386Z,17.45
2022-11-12T11:25:21.369Z,16.20
2022-11-12T11:28:40.934Z,18.90
2022-11-12T11:32:02.751Z,17.55
2022-11-12T11:35:30.209Z,17.38
2022-11-12T11:38:51.903Z,17.02
2022-11-12T11:42:20.192Z,18.13
2022-11-12T11:45:46.699Z,17.83
2022-11-12T11:49:00.200Z,18.70
2022-11-12T11:52:16.240Z,17.55
2022-11-12T11:55:49.476Z,20.90
2022-11-12T11:59:13.500Z,19.70
2022-11-12T12:02:45.566Z,18.08
2022-11-12T12:06:11.258Z,19.00
2022-11-12T12:09:33.869Z,17.55
2022-11-12T12:13:19.350Z,18.30
2022-11-12T12:16:26.659Z,19.08
2022-11-12T12:20:09.025Z,20.85
2022-11-12T12:23:37.797Z,20.67
2022-11-12T12:26:47.958Z,20.43
2022-11-12T12:29:57.823Z,18.98
2022-11-12T12:33:19.029Z,20.75
2022-11-12T12:36:31.900Z,20.90
2022-11-12T12:40:06.872Z,22.15
2022-11-12T12:43:31.464Z,22.17
2022-11-12T12:46:57.555Z,21.42
2022-11-12T12:50:07.326Z,21.67
2022-11-12T12:53:14.875Z,20.58
2022-11-12T12:56:22.268Z,22.52
2022-11-12T12:59:26.668Z,23.52
2022-11-12T13:02:38.208Z,21.30
2022-11-12T13:05:42.826Z,22.58
2022-11-12T13:08:48.222Z,20.95
2022-11-12T13:12:06.550Z,24.33
2022-11-12T13:15:16.280Z,24.30
2022-11-12T13:18:38.961Z,25.20
2022-11-12T13:21:44.528Z,23.88
2022-11-12T13:25:24.867Z,22.33
2022-11-12T13:28:29.700Z,22.38
2022-11-12T13:31:34.381Z,22.48
2022-11-12T13:34:39.039Z,24.50
2022-11-12T13:37:51.528Z,23.00
2022-11-12T13:41:09.217Z,22.42
2022-11-12T13:44:16.985Z,22.50
2022-11-12T13:47:24.697Z,23.05
2022-11-12T13:50:29.254Z,22.42
2022-11-12T13:53:34.037Z,22.85
2022-11-12T13:56:39.268Z,24.25
2022-11-12T13:59:43.677Z,24.35
2022-11-12T14:03:01.688Z,23.50
2022-11-12T14:06:34.734Z,25.05
2022-11-12T14:09:48.031Z,26.27
2022-11-12T14:13:28.770Z,25.83
2022-11-12T14:17:01.630Z,26.30
2022-11-12T14:20:26.741Z,27.48
2022-11-12T14:23:30.896Z,27.17
2022-11-12T14:26:38.056Z,26.20
2022-11-12T14:29:43.868Z,25.75
2022-11-12T14:32:59.693Z,40.63
2022-11-12T14:36:13.126Z,43.40
2022-11-12T14:39:17.802Z,24.90
2022-11-12T14:42:22.136Z,26.27
2022-11-12T14:45:30.027Z,29.02
2022-11-12T14:48:56.919Z,28.30
2022-11-12T14:52:21.887Z,26.80
2022-11-12T14:55:31.259Z,26.85
2022-11-12T14:58:36.180Z,26.52
2022-11-12T15:02:21.733Z,24.33
2022-11-12T15:05:19.326Z,24.58
2022-11-12T15:08:35.728Z,23.27
2022-11-12T15:11:46.040Z,22.88
2022-11-12T15:14:51.555Z,25.42
2022-11-12T15:18:02.264Z,25.25
2022-11-12T15:21:22.399Z,24.38
2022-11-12T15:24:29.500Z,24.00
2022-11-12T15:27:43.516Z,23.80
2022-11-12T15:31:21.158Z,24.15
2022-11-12T15:34:38.875Z,23.13
2022-11-12T15:37:43.505Z,24.20
2022-11-12T15:40:57.312Z,23.73
2022-11-12T15:44:02.017Z,24.40
2022-11-12T15:47:09.649Z,27.10
2022-11-12T15:50:13.904Z,32.38
2022-11-12T15:53:18.941Z,26.70
2022-11-12T15:56:23.219Z,25.77
2022-11-12T15:59:27.757Z,23.88
2022-11-12T16:02:32.039Z,25.17
2022-11-12T16:05:36.277Z,23.67
2022-11-12T16:08:40.638Z,25.60
2022-11-12T16:11:45.042Z,23.40
2022-11-12T16:14:49.732Z,23.17
2022-11-12T16:17:56.029Z,24.70
2022-11-12T16:21:00.103Z,28.20
2022-11-12T16:24:04.775Z,24.52
2022-11-12T16:27:14.525Z,43.22
2022-11-12T16:30:21.985Z,34.90
2022-11-12T16:33:26.729Z,30.92
2022-11-12T16:36:31.123Z,27.60
2022-11-12T16:39:35.703Z,27.08
2022-11-12T16:42:45.522Z,24.98
2022-11-12T16:45:49.842Z,22.83
2022-11-12T16:48:54.334Z,24.17
2022-11-12T16:51:58.952Z,23.65
2022-11-12T16:55:04.960Z,22.92
2022-11-12T16:58:13.814Z,23.95
2022-11-12T17:01:36.804Z,24.02
2022-11-12T17:04:41.258Z,20.80
2022-11-12T17:07:46.203Z,23.70
2022-11-12T17:10:50.779Z,23.05
2022-11-12T17:13:55.346Z,23.27
2022-11-12T17:16:59.988Z,23.38
2022-11-12T17:20:04.723Z,22.13
2022-11-12T17:23:09.298Z,22.00
2022-11-12T17:26:16.700Z,23.50
2022-11-12T17:29:21.095Z,20.73
2022-11-12T17:32:25.428Z,23.48
2022-11-12T17:35:29.624Z,26.35
2022-11-12T17:38:34.018Z,22.23
2022-11-12T17:41:38.776Z,20.73
2022-11-12T17:44:42.897Z,20.52
2022-11-12T17:47:47.273Z,21.30
2022-11-12T17:51:02.901Z,21.02
2022-11-12T17:54:08.604Z,20.23
2022-11-12T17:57:12.657Z,26.10
2022-11-12T18:00:17.530Z,24.15
2022-11-12T18:03:22.020Z,21.38
2022-11-12T18:06:33.974Z,19.33
2022-11-12T18:09:38.424Z,19.30
2022-11-12T18:12:42.754Z,18.70
2022-11-12T18:15:47.212Z,17.90
2022-11-12T18:18:55.114Z,17.27
2022-11-12T18:22:00.027Z,18.52
2022-11-12T18:25:05.139Z,17.25
2022-11-12T18:28:10.252Z,18.00
2022-11-12T18:31:14.516Z,17.88
2022-11-12T18:34:19.135Z,23.17
2022-11-12T18:37:23.687Z,21.15
2022-11-12T18:40:28.645Z,18.15
2022-11-12T18:43:33.353Z,17.00
2022-11-12T18:46:37.294Z,16.85
2022-11-12T18:49:41.874Z,18.00
2022-11-12T18:52:46.229Z,18.30
2022-11-12T18:55:50.959Z,19.73
2022-11-12T18:58:55.766Z,15.70
2022-11-12T19:02:00.419Z,17.20
2022-11-12T19:05:05.066Z,17.05
2022-11-12T19:08:09.743Z,16.83
2022-11-12T19:11:16.058Z,15.88
2022-11-12T19:14:20.529Z,16.15
2022-11-12T19:17:30.523Z,14.38
2022-11-12T19:20:35.783Z,14.68
2022-11-12T19:23:43.813Z,16.48
2022-11-12T19:26:48.125Z,18.58
2022-11-12T19:29:52.505Z,15.40
2022-11-12T19:32:56.824Z,15.38
2022-11-12T19:36:06.813Z,15.38
2022-11-12T19:39:10.894Z,17.10
2022-11-12T19:42:15.445Z,16.30
2022-11-12T19:45:19.814Z,16.85
2022-11-12T19:48:24.996Z,15.95
2022-11-12T19:51:31.170Z,14.45
2022-11-12T19:54:35.603Z,20.42
2022-11-12T19:57:43.280Z,16.48
2022-11-12T20:00:47.392Z,15.35
2022-11-12T20:03:51.806Z,15.48
2022-11-12T20:06:56.396Z,15.63
2022-11-12T20:10:01.324Z,14.90
2022-11-12T20:13:07.103Z,15.35
2022-11-12T20:16:23.843Z,15.13
2022-11-12T20:19:29.739Z,13.13
2022-11-12T20:22:35.855Z,15.27
2022-11-12T20:25:40.426Z,13.70
2022-11-12T20:28:45.172Z,13.50
2022-11-12T20:31:49.285Z,13.23
2022-11-12T20:34:53.691Z,14.25
2022-11-12T20:37:59.906Z,14.85
2022-11-12T20:41:06.241Z,13.65
2022-11-12T20:44:10.862Z,13.45
2022-11-12T20:47:15.413Z,13.82
2022-11-12T20:50:20.061Z,15.00
2022-11-12T20:53:24.487Z,13.27
2022-11-12T20:56:30.460Z,12.32
2022-11-12T20:59:40.934Z,13.25
2022-11-12T21:02:45.080Z,12.30
2022-11-12T21:05:49.505Z,11.50
2022-11-12T21:08:54.215Z,11.18
2022-11-12T21:11:59.375Z,11.85
2022-11-12T21:15:05.086Z,11.90
2022-11-12T21:18:09.297Z,11.55
2022-11-12T21:21:16.519Z,13.05
2022-11-12T21:24:20.864Z,12.63
2022-11-12T21:27:25.353Z,12.10
2022-11-12T21:30:30.131Z,10.77
2022-11-12T21:33:35.267Z,10.90
2022-11-12T21:36:39.566Z,10.52
2022-11-12T21:39:43.777Z,11.63
2022-11-12T21:42:48.358Z,18.38
2022-11-12T21:45:52.725Z,13.73
2022-11-12T21:48:58.002Z,11.95
2022-11-12T21:52:02.522Z,14.93
2022-11-12T21:55:07.537Z,11.43
2022-11-12T21:58:11.751Z,10.68
2022-11-12T22:01:21.567Z,10.13
2022-11-12T22:04:26.079Z,10.88
2022-11-12T22:07:30.614Z,10.60
2022-11-12T22:10:34.995Z,10.60
2022-11-12T22:13:39.953Z,11.10
2022-11-12T22:16:44.352Z,10.77
2022-11-12T22:19:48.681Z,11.20
2022-11-12T22:22:53.304Z,12.63
2022-11-12T22:25:58.295Z,11.73
2022-11-12T22:29:03.323Z,10.07
2022-11-12T22:32:07.711Z,9.88
2022-11-12T22:35:11.857Z,10.23
2022-11-12T22:38:16.372Z,10.57
2022-11-12T22:41:30.036Z,10.10
2022-11-12T22:44:34.381Z,9.35
2022-11-12T22:47:38.738Z,9.85
2022-11-12T22:50:43.274Z,8.93
2022-11-12T22:53:48.111Z,9.18
2022-11-12T22:56:52.351Z,8.93
2022-11-12T22:59:58.199Z,9.57
2022-11-12T23:03:02.157Z,9.27
2022-11-12T23:06:06.952Z,8.43
2022-11-12T23:09:16.325Z,9.93
2022-11-12T23:12:20.655Z,9.35
2022-11-12T23:15:28.949Z,8.75
2022-11-12T23:18:33.064Z,9.50
2022-11-12T23:21:37.685Z,8.20
2022-11-12T23:24:41.874Z,8.90
2022-11-12T23:27:46.364Z,10.18
2022-11-12T23:30:50.910Z,9.55
2022-11-12T23:33:57.223Z,11.45
2022-11-12T23:37:01.542Z,9.50
2022-11-12T23:40:06.666Z,9.27
2022-11-12T23:43:10.889Z,8.32
2022-11-12T23:46:15.649Z,8.55
2022-11-12T23:49:20.073Z,8.52
2022-11-12T23:52:24.234Z,8.75
2022-11-12T23:55:29.394Z,9.20
2022-11-12T23:58:33.915Z,9.38
